KPTS/PTS METAR and TAF weather

Enter ICAO airport designator
Station Type Date Time Source
KPTS METAR 2019/06/18 12:35 UTC NOAA

KPTS 181235Z AUTO 09003KT 1/4SM FG OVC001 19/19 A2993 RMK AO2 T01850185


Station Type Date Time Source
KPTS Decoded METAR 2019/06/18 12:35 UTC NOAA

Station name not available
Jun 18, 2019 - 08:35 AM EDT / 2019.06.18 1235 UTC
Wind: from the E (090 degrees) at 3 MPH (3 KT):0
Visibility: 1/4 mile(s):0
Sky conditions: overcast
Weather: fog
Temperature: 65.3 F (18.5 C)
Dew Point: 65.3 F (18.5 C)
Relative Humidity: 100%
Pressure (altimeter): 29.93 in. Hg (1013 hPa)
ob: KPTS 181235Z AUTO 09003KT 1/4SM FG OVC001 19/19 A2993 RMK AO2 T01850185
cycle: 12

Station Type Date Time Source
KPTS TAF UTC NOAA

Error!

Example: see airport list